createdAt,value
2023-03-10T00:03:34.184Z,9.13
2023-03-10T00:08:38.011Z,9.05
2023-03-10T00:13:43.721Z,9.04
2023-03-10T00:18:47.915Z,8.77
2023-03-10T00:23:52.276Z,8.65
2023-03-10T00:28:57.594Z,8.60
2023-03-10T00:34:01.739Z,8.53
2023-03-10T00:39:05.581Z,8.38
2023-03-10T00:44:11.486Z,8.36
2023-03-10T00:49:17.688Z,8.18
2023-03-10T00:54:21.483Z,7.74
2023-03-10T00:59:27.404Z,7.64
2023-03-10T01:04:32.287Z,7.50
2023-03-10T01:09:36.368Z,7.43
2023-03-10T01:14:41.687Z,7.40
2023-03-10T01:19:45.834Z,7.33
2023-03-10T01:24:49.815Z,7.45
2023-03-10T01:29:55.192Z,7.33
2023-03-10T01:35:00.178Z,7.13
2023-03-10T01:40:06.097Z,6.88
2023-03-10T01:45:50.193Z,6.58
2023-03-10T01:50:57.798Z,6.50
2023-03-10T01:56:05.057Z,6.38
2023-03-10T02:01:12.101Z,6.36
2023-03-10T02:06:21.166Z,6.32
2023-03-10T02:11:28.470Z,6.48
2023-03-10T02:16:34.747Z,6.66
2023-03-10T02:21:45.648Z,6.75
2023-03-10T02:26:56.010Z,6.79
2023-03-10T02:32:02.996Z,6.77
2023-03-10T02:37:06.961Z,6.76
2023-03-10T02:42:12.810Z,6.65
2023-03-10T02:47:18.499Z,6.58
2023-03-10T02:52:30.476Z,6.52
2023-03-10T02:57:34.620Z,6.30
2023-03-10T03:02:40.418Z,6.42
2023-03-10T03:07:44.548Z,6.24
2023-03-10T03:12:50.579Z,6.34
2023-03-10T03:17:58.585Z,6.38
2023-03-10T03:23:04.021Z,6.70
2023-03-10T03:28:11.329Z,6.80
2023-03-10T03:33:17.447Z,6.83
2023-03-10T03:38:22.367Z,6.79
2023-03-10T03:43:27.680Z,6.65
2023-03-10T03:48:34.951Z,6.78
2023-03-10T03:53:41.798Z,6.95
2023-03-10T03:58:46.206Z,7.02
2023-03-10T04:03:52.598Z,7.02
2023-03-10T04:08:56.665Z,7.03
2023-03-10T04:14:04.115Z,6.86
2023-03-10T04:19:10.026Z,6.85
2023-03-10T04:24:18.262Z,6.80
2023-03-10T04:29:24.470Z,6.89
2023-03-10T04:34:32.128Z,6.95
2023-03-10T04:39:37.467Z,7.05
2023-03-10T04:44:43.111Z,7.11
2023-03-10T04:49:49.147Z,7.13
2023-03-10T04:54:53.249Z,7.05
2023-03-10T04:59:57.480Z,6.90
2023-03-10T05:05:03.494Z,6.93
2023-03-10T05:10:08.624Z,6.86
2023-03-10T05:15:14.631Z,6.92
2023-03-10T05:20:20.766Z,7.04
2023-03-10T05:25:24.838Z,7.09
2023-03-10T05:30:29.426Z,7.28
2023-03-10T05:35:36.284Z,7.43
2023-03-10T05:40:41.682Z,7.57
2023-03-10T05:45:45.786Z,7.81
2023-03-10T05:51:00.297Z,7.87
2023-03-10T05:56:07.293Z,7.91
2023-03-10T06:01:12.297Z,8.32
2023-03-10T06:06:17.765Z,8.08
2023-03-10T06:11:21.730Z,8.30
2023-03-10T06:16:26.559Z,8.85
2023-03-10T06:21:32.033Z,8.89
2023-03-10T06:26:36.152Z,9.02
2023-03-10T06:31:40.138Z,9.49
2023-03-10T06:36:45.544Z,9.82
2023-03-10T06:41:49.495Z,10.13
2023-03-10T06:46:53.412Z,10.51
2023-03-10T06:51:58.901Z,10.57
2023-03-10T06:57:02.848Z,10.89
2023-03-10T07:02:08.148Z,11.01
2023-03-10T07:07:14.151Z,10.72
2023-03-10T07:12:18.111Z,10.54
2023-03-10T07:17:22.234Z,10.64
2023-03-10T07:22:27.617Z,10.40
2023-03-10T07:27:31.541Z,10.31
2023-03-10T07:32:35.890Z,10.60
2023-03-10T07:37:41.683Z,10.95
2023-03-10T07:42:45.728Z,11.13
2023-03-10T07:47:54.748Z,11.37
2023-03-10T07:53:00.036Z,11.58
2023-03-10T07:58:03.979Z,11.74
2023-03-10T08:03:07.968Z,12.04
2023-03-10T08:08:14.531Z,12.01
2023-03-10T08:13:18.649Z,12.20
2023-03-10T08:18:23.516Z,12.79
2023-03-10T08:23:28.926Z,13.32
2023-03-10T08:28:35.170Z,14.09
2023-03-10T08:33:39.918Z,14.64
2023-03-10T08:38:47.195Z,15.18
2023-03-10T08:43:52.055Z,14.93
2023-03-10T08:48:56.699Z,15.24
2023-03-10T08:54:02.533Z,15.08
2023-03-10T08:59:06.599Z,15.01
2023-03-10T09:04:11.507Z,15.05
2023-03-10T09:09:16.788Z,15.44
2023-03-10T09:14:20.731Z,16.09
2023-03-10T09:19:25.136Z,16.71
2023-03-10T09:24:30.450Z,18.02
2023-03-10T09:29:43.033Z,18.66
2023-03-10T09:34:47.159Z,18.83
2023-03-10T09:39:52.792Z,17.42
2023-03-10T09:45:09.296Z,17.35
2023-03-10T09:50:26.689Z,17.15
2023-03-10T09:55:40.101Z,17.20
2023-03-10T10:00:46.863Z,17.00
2023-03-10T10:05:54.320Z,16.84
2023-03-10T10:11:01.610Z,16.77
2023-03-10T10:16:31.962Z,16.83
2023-03-10T10:21:44.188Z,15.75
2023-03-10T10:26:49.573Z,15.00
2023-03-10T10:32:09.344Z,14.80
2023-03-10T10:37:34.212Z,14.58
2023-03-10T10:42:52.544Z,14.73
2023-03-10T10:47:56.472Z,14.68
2023-03-10T10:53:19.870Z,14.55
2023-03-10T10:58:39.122Z,14.42
2023-03-10T11:03:44.622Z,14.23
2023-03-10T11:08:51.390Z,14.02
2023-03-10T11:14:07.239Z,13.97
2023-03-10T11:19:22.749Z,13.92
2023-03-10T11:24:33.008Z,14.02
2023-03-10T11:29:58.184Z,13.98
2023-03-10T11:35:19.994Z,13.81
2023-03-10T11:40:31.797Z,13.59
2023-03-10T11:45:43.074Z,13.39
2023-03-10T11:50:53.081Z,12.92
2023-03-10T11:55:59.471Z,12.52
2023-03-10T12:01:05.860Z,12.37
2023-03-10T12:06:14.259Z,11.81
2023-03-10T12:11:22.642Z,11.48
2023-03-10T12:16:31.813Z,11.17
2023-03-10T12:21:36.164Z,11.74
2023-03-10T12:27:04.293Z,11.58
2023-03-10T12:32:44.554Z,11.50
2023-03-10T12:37:48.501Z,11.47
2023-03-10T12:42:52.492Z,11.39
2023-03-10T12:48:04.027Z,11.46
2023-03-10T12:53:30.032Z,11.55
2023-03-10T12:58:37.216Z,11.52
2023-03-10T13:03:47.593Z,11.45
2023-03-10T13:08:56.009Z,11.54
2023-03-10T13:14:02.640Z,11.51
2023-03-10T13:19:08.323Z,11.75
2023-03-10T13:24:23.864Z,11.84
2023-03-10T13:29:27.770Z,11.83
2023-03-10T13:34:37.313Z,11.70
2023-03-10T13:39:41.350Z,11.47
2023-03-10T13:44:47.486Z,11.43
2023-03-10T13:49:56.236Z,11.24
2023-03-10T13:55:06.973Z,11.18
2023-03-10T14:00:14.897Z,11.03
2023-03-10T14:05:44.173Z,11.06
2023-03-10T14:10:48.576Z,11.12
2023-03-10T14:15:56.893Z,11.19
2023-03-10T14:21:26.571Z,11.25
2023-03-10T14:26:30.841Z,11.26
2023-03-10T14:31:34.738Z,11.33
2023-03-10T14:36:40.039Z,11.45
2023-03-10T14:41:43.936Z,11.34
2023-03-10T14:46:53.264Z,11.24
2023-03-10T14:51:58.902Z,11.15
2023-03-10T14:57:02.918Z,11.21
2023-03-10T15:02:10.388Z,11.15
2023-03-10T15:07:15.766Z,10.95
2023-03-10T15:12:19.637Z,10.96
2023-03-10T15:17:23.723Z,11.08
2023-03-10T15:22:28.998Z,11.21
2023-03-10T15:27:33.038Z,11.20
2023-03-10T15:32:37.037Z,11.14
2023-03-10T15:37:42.545Z,11.17
2023-03-10T15:42:47.298Z,11.02
2023-03-10T15:47:53.106Z,10.86
2023-03-10T15:52:59.903Z,11.00
2023-03-10T15:58:03.799Z,10.85
2023-03-10T16:03:07.657Z,10.72
2023-03-10T16:08:12.966Z,10.69
2023-03-10T16:13:16.883Z,10.53
2023-03-10T16:18:20.760Z,10.50
2023-03-10T16:23:26.397Z,10.44
2023-03-10T16:28:32.847Z,10.30
2023-03-10T16:33:36.782Z,10.16
2023-03-10T16:38:42.237Z,9.87
2023-03-10T16:43:46.518Z,9.64
2023-03-10T16:48:50.406Z,9.19
2023-03-10T16:53:57.437Z,9.12
2023-03-10T16:59:01.451Z,9.29
2023-03-10T17:04:05.681Z,9.17
2023-03-10T17:09:12.993Z,8.84
2023-03-10T17:14:17.781Z,8.66
2023-03-10T17:19:28.890Z,8.52
2023-03-10T17:24:34.340Z,8.40
2023-03-10T17:29:38.323Z,8.24
2023-03-10T17:34:42.439Z,8.25
2023-03-10T17:39:48.263Z,8.21
2023-03-10T17:44:52.282Z,8.20
2023-03-10T17:50:00.023Z,8.20
2023-03-10T17:55:06.357Z,8.19
2023-03-10T18:00:12.819Z,8.09
2023-03-10T18:05:16.864Z,7.99
2023-03-10T18:10:22.484Z,8.03
2023-03-10T18:15:26.463Z,8.03
2023-03-10T18:20:30.570Z,7.97
2023-03-10T18:25:35.804Z,7.92
2023-03-10T18:30:42.451Z,8.00
2023-03-10T18:35:47.480Z,8.04
2023-03-10T18:40:59.311Z,8.14
2023-03-10T18:46:04.082Z,8.18
2023-03-10T18:51:08.265Z,8.21
2023-03-10T18:56:13.705Z,8.27
2023-03-10T19:01:17.647Z,8.24
2023-03-10T19:06:21.648Z,8.25
2023-03-10T19:11:27.929Z,8.24
2023-03-10T19:16:32.139Z,8.21
2023-03-10T19:21:36.394Z,8.38
2023-03-10T19:26:43.432Z,8.39
2023-03-10T19:31:47.476Z,8.42
2023-03-10T19:36:51.394Z,8.35
2023-03-10T19:41:56.662Z,8.27
2023-03-10T19:47:01.674Z,8.24
2023-03-10T19:52:05.991Z,8.25
2023-03-10T19:57:13.270Z,8.23
2023-03-10T20:02:19.157Z,8.17
2023-03-10T20:07:23.162Z,8.14
2023-03-10T20:12:29.184Z,8.02
2023-03-10T20:17:33.278Z,8.04
2023-03-10T20:22:41.474Z,8.03
2023-03-10T20:27:48.049Z,8.04
2023-03-10T20:32:52.347Z,7.97
2023-03-10T20:37:56.412Z,8.01
2023-03-10T20:43:01.689Z,8.06
2023-03-10T20:48:06.415Z,8.12
2023-03-10T20:53:11.116Z,8.12
2023-03-10T20:58:16.372Z,8.12
2023-03-10T21:03:21.476Z,8.02
2023-03-10T21:08:25.405Z,7.98
2023-03-10T21:13:30.763Z,8.10
2023-03-10T21:18:34.976Z,8.09
2023-03-10T21:23:39.341Z,8.00
2023-03-10T21:28:45.535Z,8.13
2023-03-10T21:33:50.204Z,8.21
2023-03-10T21:38:54.200Z,8.20
2023-03-10T21:44:00.356Z,8.32
2023-03-10T21:49:04.317Z,8.36
2023-03-10T21:54:08.256Z,8.49
2023-03-10T21:59:13.546Z,8.48
2023-03-10T22:04:17.545Z,8.48
2023-03-10T22:09:21.525Z,8.54
2023-03-10T22:14:26.815Z,8.48
2023-03-10T22:19:31.864Z,8.50
2023-03-10T22:24:35.798Z,8.51
2023-03-10T22:29:41.223Z,8.47
2023-03-10T22:34:45.878Z,8.63
2023-03-10T22:39:49.732Z,8.55
2023-03-10T22:44:55.225Z,8.60
2023-03-10T22:49:59.171Z,8.48
2023-03-10T22:55:03.063Z,8.50
2023-03-10T23:00:13.485Z,8.29
2023-03-10T23:05:17.879Z,8.35
2023-03-10T23:10:24.875Z,8.31
2023-03-10T23:15:33.446Z,8.21
2023-03-10T23:20:39.521Z,8.29
2023-03-10T23:25:47.079Z,8.38
2023-03-10T23:30:54.391Z,8.39
2023-03-10T23:35:58.455Z,8.49
2023-03-10T23:41:02.722Z,8.45
2023-03-10T23:46:09.665Z,8.34
2023-03-10T23:51:15.751Z,8.34
2023-03-10T23:56:19.642Z,8.37
